Time;durP1;ratioP1;P1;durP2;ratioP2;P2;SDS_P1;SDS_P2;PMS_P1;PMS_P2;Temp;Humidity;BMP_temperature;BMP_pressure;BME280_temperature;BME280_humidity;BME280_pressure;Samples;Min_cycle;Max_cycle;Signal;HPM_P1;HPM_P2
2022/01/17 00:00:48;;;;;;;48.57;22.00;;;4.30;99.90;;;;;;4958027;29;20424;-75
2022/01/17 00:03:14;;;;;;;46.37;21.23;;;4.30;99.90;;;;;;4957832;28;20224;-75
2022/01/17 00:05:39;;;;;;;44.27;22.00;;;4.30;99.90;;;;;;4956971;28;20646;-76
2022/01/17 00:08:05;;;;;;;45.40;17.40;;;4.30;99.90;;;;;;4958031;29;20189;-74
2022/01/17 00:10:31;;;;;;;54.17;19.40;;;4.20;99.90;;;;;;4958214;29;20181;-75
2022/01/17 00:12:58;;;;;;;48.10;21.97;;;4.20;99.90;;;;;;4957734;28;20201;-75
2022/01/17 00:15:43;;;;;;;52.97;23.05;;;4.30;99.90;;;;;;4958174;29;20585;-75
2022/01/17 00:20:37;;;;;;;52.00;23.20;;;4.20;99.90;;;;;;4958167;29;20265;-75
2022/01/17 00:23:02;;;;;;;47.73;20.63;;;4.20;99.90;;;;;;4957412;28;20275;-75
2022/01/17 00:25:28;;;;;;;51.87;22.67;;;4.30;99.90;;;;;;4958088;29;20579;-75
2022/01/17 00:27:53;;;;;;;46.47;21.70;;;4.30;99.90;;;;;;4958087;29;20268;-75
2022/01/17 00:30:19;;;;;;;43.03;21.67;;;4.30;99.90;;;;;;4958064;29;20181;-75
2022/01/17 00:32:45;;;;;;;49.17;20.80;;;4.40;99.90;;;;;;4957505;28;20657;-75
2022/01/17 00:35:10;;;;;;;43.90;20.10;;;4.30;99.90;;;;;;4971082;28;20271;-75
2022/01/17 00:37:37;;;;;;;47.63;20.43;;;4.30;99.90;;;;;;4975720;28;20423;-75
2022/01/17 00:40:03;;;;;;;47.78;21.20;;;4.20;99.90;;;;;;4977108;28;20177;-76
2022/01/17 00:42:29;;;;;;;60.50;21.73;;;4.20;99.90;;;;;;4974825;28;20260;-75
2022/01/17 00:44:54;;;;;;;49.57;20.30;;;4.20;99.90;;;;;;4977158;28;20184;-75
2022/01/17 00:47:20;;;;;;;46.50;18.60;;;4.30;99.90;;;;;;4976839;28;20188;-75
2022/01/17 00:49:45;;;;;;;46.00;20.50;;;4.20;99.90;;;;;;4977011;28;20542;-75
2022/01/17 00:52:11;;;;;;;47.77;22.27;;;4.20;99.90;;;;;;4975121;28;20204;-74
2022/01/17 00:54:37;;;;;;;50.20;21.47;;;4.30;99.90;;;;;;4976612;28;20177;-75
2022/01/17 00:57:03;;;;;;;38.60;18.67;;;4.30;99.90;;;;;;4976692;28;20181;-75
2022/01/17 00:59:29;;;;;;;50.25;24.52;;;4.20;99.90;;;;;;4975406;28;20212;-75
2022/01/17 01:01:54;;;;;;;48.10;19.83;;;4.20;99.90;;;;;;4976043;28;20243;-75
2022/01/17 01:04:20;;;;;;;53.33;23.27;;;4.20;99.90;;;;;;4976443;28;20205;-75
2022/01/17 01:06:46;;;;;;;53.50;22.30;;;4.20;99.90;;;;;;4976409;28;20207;-75
2022/01/17 01:09:11;;;;;;;48.93;22.07;;;4.30;99.90;;;;;;4974586;28;20196;-75
2022/01/17 01:11:37;;;;;;;44.83;19.93;;;4.30;99.90;;;;;;4964873;28;20213;-75
2022/01/17 01:14:04;;;;;;;43.13;20.27;;;4.30;99.90;;;;;;4956830;29;20220;-75
2022/01/17 01:16:33;;;;;;;51.22;22.73;;;4.30;99.90;;;;;;4956726;29;20262;-75
2022/01/17 01:29:29;;;;;;;54.90;24.60;;;4.40;99.90;;;;;;4957178;29;20200;-75
2022/01/17 01:32:03;;;;;;;53.90;25.20;;;4.40;99.90;;;;;;4956494;28;20563;-75
2022/01/17 01:34:39;;;;;;;48.60;21.48;;;4.40;99.90;;;;;;4956929;29;20517;-75
2022/01/17 01:37:06;;;;;;;50.95;24.10;;;4.40;99.90;;;;;;4955360;29;20224;-75
2022/01/17 01:39:32;;;;;;;54.45;24.13;;;4.40;99.90;;;;;;4969057;28;20193;-75
2022/01/17 01:41:59;;;;;;;57.53;26.98;;;4.40;99.90;;;;;;4975406;28;20197;-75
2022/01/17 01:44:26;;;;;;;62.72;26.55;;;4.50;99.90;;;;;;4975465;28;20266;-75
2022/01/17 01:46:54;;;;;;;51.38;26.65;;;4.50;99.90;;;;;;4975488;28;20278;-75
2022/01/17 01:49:21;;;;;;;57.13;25.60;;;4.50;99.90;;;;;;4975586;28;20177;-75
2022/01/17 01:51:47;;;;;;;51.13;24.20;;;4.40;99.90;;;;;;4975318;28;20188;-74
2022/01/17 01:54:14;;;;;;;56.85;24.88;;;4.50;99.90;;;;;;4973912;28;20200;-75
2022/01/17 01:56:44;;;;;;;57.78;24.98;;;4.50;99.90;;;;;;4975567;28;20618;-75
2022/01/17 01:59:10;;;;;;;55.20;25.83;;;4.40;99.90;;;;;;4974162;28;20191;-75
2022/01/17 02:01:36;;;;;;;46.10;22.42;;;4.50;99.90;;;;;;4975068;28;20201;-75
2022/01/17 02:04:03;;;;;;;60.45;27.45;;;4.50;99.90;;;;;;4975369;28;20601;-75
2022/01/17 02:06:29;;;;;;;58.13;27.08;;;4.50;99.90;;;;;;4975362;28;20192;-75
2022/01/17 02:08:55;;;;;;;63.87;27.07;;;4.60;99.90;;;;;;4973809;28;20193;-75
2022/01/17 02:11:20;;;;;;;56.70;25.13;;;4.60;99.90;;;;;;4966884;28;20271;-75
2022/01/17 02:13:46;;;;;;;60.30;27.23;;;4.60;99.90;;;;;;4955244;29;20173;-75
2022/01/17 02:16:14;;;;;;;67.13;28.92;;;4.60;99.90;;;;;;4955406;28;20188;-75
2022/01/17 02:18:44;;;;;;;36.63;16.13;;;4.60;99.90;;;;;;4955931;29;20191;-74
2022/01/17 02:24:06;;;;;;;57.22;25.15;;;4.60;99.90;;;;;;4963819;28;20232;-74
2022/01/17 02:26:32;;;;;;;59.07;26.73;;;4.50;99.90;;;;;;4955759;29;20189;-75
2022/01/17 02:28:57;;;;;;;63.97;27.50;;;4.60;99.90;;;;;;4955887;29;20213;-75
2022/01/17 02:31:24;;;;;;;56.50;26.93;;;4.60;99.90;;;;;;4955364;28;20666;-75
2022/01/17 02:33:53;;;;;;;55.05;25.45;;;4.60;99.90;;;;;;4955644;29;20212;-75
2022/01/17 02:36:19;;;;;;;51.95;23.48;;;4.60;99.90;;;;;;4955609;29;20212;-75
2022/01/17 02:38:45;;;;;;;49.05;19.38;;;4.60;99.90;;;;;;4954866;28;20208;-75
2022/01/17 02:41:11;;;;;;;64.07;26.50;;;4.60;99.90;;;;;;4955153;28;20216;-75
2022/01/17 02:43:39;;;;;;;50.20;24.55;;;4.60;99.90;;;;;;4969653;28;20225;-75
2022/01/17 02:48:36;;;;;;;50.73;26.03;;;4.60;99.90;;;;;;4955570;29;20181;-75
2022/01/17 02:51:03;;;;;;;50.22;27.25;;;4.60;99.90;;;;;;4955124;28;20184;-75
2022/01/17 02:53:29;;;;;;;64.25;25.30;;;4.60;99.90;;;;;;4954094;29;20607;-75
2022/01/17 02:56:04;;;;;;;54.15;27.27;;;4.60;99.90;;;;;;4955469;29;20181;-75
2022/01/17 02:58:34;;;;;;;64.05;28.35;;;4.70;99.90;;;;;;4955500;29;20204;-75
2022/01/17 03:01:04;;;;;;;63.30;28.10;;;4.70;99.90;;;;;;4954884;28;20272;-75
2022/01/17 03:03:30;;;;;;;53.13;24.80;;;4.70;99.90;;;;;;4954472;28;20268;-75
2022/01/17 03:05:57;;;;;;;53.53;24.60;;;4.70;99.90;;;;;;4963834;28;20185;-74
2022/01/17 03:08:25;;;;;;;54.05;26.58;;;4.70;99.90;;;;;;4963664;28;20272;-75
2022/01/17 03:10:52;;;;;;;57.92;29.02;;;4.70;99.90;;;;;;4954778;29;20190;-75
2022/01/17 03:13:30;;;;;;;63.03;29.23;;;4.70;99.90;;;;;;4954589;29;20193;-75
2022/01/17 03:15:58;;;;;;;66.97;29.90;;;4.70;99.90;;;;;;4954897;29;20168;-75
2022/01/17 03:18:32;;;;;;;67.88;28.85;;;4.80;99.90;;;;;;4955010;29;20184;-75
2022/01/17 03:20:59;;;;;;;71.30;30.92;;;4.70;99.90;;;;;;4969329;28;20184;-74
2022/01/17 03:23:25;;;;;;;70.95;29.70;;;4.80;99.90;;;;;;4954879;29;20300;-75
2022/01/17 03:25:52;;;;;;;55.10;27.73;;;4.80;99.90;;;;;;4954875;29;20209;-75
2022/01/17 03:28:17;;;;;;;64.32;29.90;;;4.80;99.90;;;;;;4954873;29;20253;-75
2022/01/17 03:30:43;;;;;;;57.40;29.30;;;4.80;99.90;;;;;;4953573;29;20224;-75
2022/01/17 03:33:13;;;;;;;54.57;28.03;;;4.80;99.90;;;;;;4954951;28;20208;-75
2022/01/17 03:35:41;;;;;;;54.53;26.73;;;4.80;99.90;;;;;;4955030;28;20562;-75
2022/01/17 03:38:09;;;;;;;65.15;29.67;;;4.90;99.90;;;;;;4955167;29;20173;-75
2022/01/17 03:40:35;;;;;;;64.70;30.25;;;4.90;99.90;;;;;;4954346;28;20205;-75
2022/01/17 03:43:01;;;;;;;58.42;28.25;;;4.90;99.90;;;;;;4954359;28;20216;-75
2022/01/17 03:45:27;;;;;;;67.33;31.50;;;4.80;99.90;;;;;;4954740;29;20186;-74
2022/01/17 03:47:52;;;;;;;61.90;28.67;;;4.90;99.90;;;;;;4954714;29;20184;-75
2022/01/17 03:50:21;;;;;;;54.27;25.50;;;4.90;99.90;;;;;;4954956;29;20634;-75
2022/01/17 03:52:47;;;;;;;65.10;28.83;;;4.90;99.90;;;;;;4954374;28;20202;-75
2022/01/17 03:55:16;;;;;;;62.25;27.73;;;4.90;99.90;;;;;;4954727;29;20690;-75
2022/01/17 03:57:44;;;;;;;58.55;27.95;;;4.90;99.90;;;;;;4954660;29;20186;-75
2022/01/17 04:00:19;;;;;;;64.55;30.92;;;4.90;99.90;;;;;;4953473;29;20187;-75
2022/01/17 04:02:45;;;;;;;59.28;31.10;;;4.90;99.90;;;;;;4954324;28;20217;-75
2022/01/17 04:05:11;;;;;;;59.78;27.95;;;5.00;99.90;;;;;;4954691;29;20191;-74
2022/01/17 04:07:36;;;;;;;56.57;29.13;;;5.00;99.90;;;;;;4954584;29;20185;-75
2022/01/17 04:10:03;;;;;;;66.30;29.70;;;4.90;99.90;;;;;;4953733;28;20625;-75
2022/01/17 04:12:29;;;;;;;62.97;31.92;;;5.00;99.90;;;;;;4953988;28;20222;-74
2022/01/17 04:14:55;;;;;;;59.10;28.77;;;5.00;99.90;;;;;;4954163;29;20181;-74
2022/01/17 04:17:27;;;;;;;59.17;31.38;;;5.00;99.90;;;;;;4955042;28;20173;-75
2022/01/17 04:19:59;;;;;;;70.50;27.73;;;4.90;99.90;;;;;;4956781;29;20188;-75
2022/01/17 04:22:25;;;;;;;65.97;30.38;;;4.90;99.90;;;;;;4957361;28;20579;-74
2022/01/17 04:24:51;;;;;;;67.90;29.63;;;5.00;99.90;;;;;;4958027;29;20185;-75
2022/01/17 04:27:17;;;;;;;50.13;26.80;;;5.00;99.90;;;;;;4958006;29;20497;-75
2022/01/17 04:29:42;;;;;;;58.93;27.30;;;5.00;99.90;;;;;;4957092;29;20429;-75
2022/01/17 04:32:08;;;;;;;64.50;29.27;;;5.00;99.90;;;;;;4957313;28;20209;-75
2022/01/17 04:34:34;;;;;;;64.30;27.97;;;5.00;99.90;;;;;;4957912;29;20189;-75
2022/01/17 04:37:02;;;;;;;61.00;27.67;;;5.00;99.90;;;;;;4957740;29;20229;-75
2022/01/17 04:39:28;;;;;;;62.17;25.98;;;5.00;99.90;;;;;;4958822;29;20185;-75
2022/01/17 04:41:53;;;;;;;68.22;28.55;;;4.90;99.90;;;;;;4957340;28;20657;-75
2022/01/17 04:47:03;;;;;;;62.90;29.85;;;4.80;99.90;;;;;;4971278;28;20218;-75
2022/01/17 04:49:28;;;;;;;65.77;30.33;;;4.90;99.90;;;;;;4976825;28;20184;-75
2022/01/17 04:51:55;;;;;;;56.30;27.37;;;4.80;99.90;;;;;;4976498;28;20267;-75
2022/01/17 04:56:47;;;;;;;66.40;28.38;;;4.80;99.90;;;;;;4976720;28;20187;-75
2022/01/17 04:59:12;;;;;;;58.53;29.20;;;4.90;99.90;;;;;;4975494;28;20549;-75
2022/01/17 05:01:38;;;;;;;58.20;26.97;;;4.80;99.90;;;;;;4976272;28;20340;-75
2022/01/17 05:04:04;;;;;;;49.80;25.63;;;4.80;99.90;;;;;;4976356;28;20293;-75
2022/01/17 05:06:29;;;;;;;59.67;28.63;;;4.90;99.90;;;;;;4976385;28;20527;-75
2022/01/17 05:08:55;;;;;;;53.30;25.40;;;4.80;99.90;;;;;;4976706;28;20185;-75
2022/01/17 05:11:24;;;;;;;59.33;25.10;;;4.90;99.90;;;;;;4976001;28;20196;-75
2022/01/17 05:13:50;;;;;;;54.67;26.85;;;4.90;99.90;;;;;;4976439;28;20267;-75
2022/01/17 05:16:17;;;;;;;64.47;30.03;;;4.80;99.90;;;;;;4973385;28;20271;-75
2022/01/17 05:21:08;;;;;;;54.13;25.33;;;4.80;99.90;;;;;;4975535;28;20217;-75
2022/01/17 05:23:34;;;;;;;64.13;30.17;;;4.90;99.90;;;;;;4976218;28;20231;-75
2022/01/17 05:26:00;;;;;;;64.03;27.63;;;4.90;99.90;;;;;;4976109;28;20177;-75
2022/01/17 05:28:25;;;;;;;55.03;27.57;;;4.80;99.90;;;;;;4975017;28;20503;-75
2022/01/17 05:30:51;;;;;;;58.50;26.30;;;4.90;99.90;;;;;;4975766;28;20292;-75
2022/01/17 05:33:17;;;;;;;61.07;25.53;;;4.90;99.90;;;;;;4974732;28;20212;-75
2022/01/17 05:35:42;;;;;;;67.33;29.23;;;4.90;99.90;;;;;;4975966;28;20199;-74
2022/01/17 05:38:08;;;;;;;58.37;26.90;;;4.90;99.90;;;;;;4976111;28;20279;-75
2022/01/17 05:40:33;;;;;;;59.07;26.47;;;4.80;99.90;;;;;;4974906;28;20185;-75
2022/01/17 05:42:59;;;;;;;55.40;25.40;;;4.80;99.90;;;;;;4974568;28;20570;-75
2022/01/17 05:45:25;;;;;;;63.53;28.93;;;4.70;99.90;;;;;;4972838;28;20197;-75
2022/01/17 05:47:50;;;;;;;52.90;22.70;;;4.80;99.90;;;;;;4956842;29;20185;-74
2022/01/17 05:50:16;;;;;;;59.83;29.77;;;4.80;99.90;;;;;;4956603;29;20181;-75
2022/01/17 05:52:43;;;;;;;57.63;26.80;;;4.90;99.90;;;;;;4955980;28;20216;-75
2022/01/17 05:55:12;;;;;;;56.30;26.00;;;4.90;99.90;;;;;;4956261;28;20184;-74
2022/01/17 05:57:38;;;;;;;47.65;20.23;;;5.00;99.90;;;;;;4956310;29;20184;-75
2022/01/17 06:00:10;;;;;;;54.13;27.27;;;4.80;99.90;;;;;;4956256;29;20319;-75
2022/01/17 06:02:36;;;;;;;56.40;26.15;;;4.80;99.90;;;;;;4955667;28;20580;-75
2022/01/17 06:05:01;;;;;;;49.90;24.03;;;4.80;99.90;;;;;;4954966;29;20193;-75
2022/01/17 06:07:27;;;;;;;50.27;25.30;;;4.90;99.90;;;;;;4956116;29;20213;-75
2022/01/17 06:09:52;;;;;;;53.00;23.63;;;4.80;99.90;;;;;;4956156;29;20579;-75
2022/01/17 06:12:18;;;;;;;51.20;24.43;;;4.80;99.90;;;;;;4955602;28;20197;-74
2022/01/17 06:14:44;;;;;;;54.97;23.70;;;4.80;99.90;;;;;;4955976;29;20525;-75
2022/01/17 06:17:10;;;;;;;53.25;24.73;;;4.80;99.90;;;;;;5047313;23;20310;-74
2022/01/17 06:19:35;;;;;;;50.23;23.80;;;4.80;99.90;;;;;;4990861;28;20210;-74
2022/01/17 06:22:02;;;;;;;46.37;22.87;;;4.90;99.90;;;;;;4974297;28;20211;-74
2022/01/17 06:24:28;;;;;;;44.28;25.27;;;4.90;99.90;;;;;;4975139;28;20565;-74
2022/01/17 06:26:53;;;;;;;53.40;25.87;;;4.90;99.90;;;;;;4975158;28;20173;-74
2022/01/17 06:29:19;;;;;;;53.97;25.90;;;4.90;99.90;;;;;;4975223;28;20231;-74
2022/01/17 06:31:45;;;;;;;57.17;27.53;;;4.90;99.90;;;;;;4978767;28;20205;-74
2022/01/17 06:34:13;;;;;;;48.07;23.60;;;5.00;99.90;;;;;;4974903;28;20172;-74
2022/01/17 06:36:41;;;;;;;55.03;25.30;;;5.00;99.90;;;;;;4974912;28;20184;-73
2022/01/17 06:39:08;;;;;;;51.42;23.55;;;5.00;99.90;;;;;;4974244;28;20181;-74
2022/01/17 06:41:34;;;;;;;51.58;23.77;;;4.90;99.90;;;;;;4974303;28;20211;-73
2022/01/17 06:44:00;;;;;;;43.80;24.20;;;5.00;99.90;;;;;;4974516;28;20207;-74
2022/01/17 06:46:26;;;;;;;48.60;23.30;;;5.00;99.90;;;;;;4974671;28;20703;-74
2022/01/17 06:48:52;;;;;;;49.07;23.00;;;5.00;99.90;;;;;;4974758;28;20180;-74
2022/01/17 06:51:17;;;;;;;52.70;23.93;;;5.10;99.90;;;;;;4974330;28;20444;-74
2022/01/17 06:53:44;;;;;;;39.80;22.67;;;5.00;99.90;;;;;;4989483;28;20450;-73
2022/01/17 06:56:10;;;;;;;47.40;23.88;;;5.00;99.90;;;;;;4986027;28;21006;-74
2022/01/17 06:58:36;;;;;;;50.67;25.33;;;5.00;99.90;;;;;;4974441;28;20212;-74
2022/01/17 07:01:04;;;;;;;47.37;24.77;;;5.10;99.90;;;;;;4973932;28;20256;-74
2022/01/17 07:03:30;;;;;;;48.40;23.83;;;5.00;99.90;;;;;;4974187;28;20464;-74
2022/01/17 07:05:56;;;;;;;52.30;24.05;;;5.00;99.90;;;;;;4973340;28;20181;-74
2022/01/17 07:08:21;;;;;;;43.07;24.27;;;5.10;99.90;;;;;;4974457;28;20177;-73
2022/01/17 07:10:47;;;;;;;43.00;23.70;;;5.10;99.90;;;;;;4974194;28;20176;-74
2022/01/17 07:13:13;;;;;;;48.50;23.90;;;5.10;99.90;;;;;;4973300;28;20209;-74
2022/01/17 07:15:38;;;;;;;44.57;23.73;;;5.10;99.90;;;;;;4974392;28;20176;-74
2022/01/17 07:18:06;;;;;;;58.87;25.40;;;5.10;99.90;;;;;;4974279;28;20204;-74
2022/01/17 07:20:32;;;;;;;47.88;22.70;;;5.20;99.90;;;;;;4974406;28;20513;-74
2022/01/17 07:22:58;;;;;;;46.47;23.08;;;5.00;99.90;;;;;;4974030;28;20224;-74
2022/01/17 07:25:24;;;;;;;44.17;23.17;;;5.10;99.90;;;;;;4974072;28;20629;-74
2022/01/17 07:27:49;;;;;;;46.13;22.20;;;5.10;99.90;;;;;;4974213;28;20200;-74
2022/01/17 07:30:15;;;;;;;52.60;25.63;;;5.10;99.90;;;;;;4973279;28;20943;-74
2022/01/17 07:32:41;;;;;;;44.33;22.50;;;5.20;99.90;;;;;;4974157;28;20581;-74
2022/01/17 07:35:07;;;;;;;43.13;21.50;;;5.10;99.90;;;;;;4973201;28;20185;-74
2022/01/17 07:37:34;;;;;;;43.53;17.38;;;5.10;99.90;;;;;;4974113;28;20246;-74
2022/01/17 07:40:00;;;;;;;49.70;22.17;;;5.10;99.90;;;;;;4974251;28;20516;-74
2022/01/17 07:42:26;;;;;;;49.28;21.65;;;5.10;99.90;;;;;;4973662;28;20200;-74
2022/01/17 07:44:54;;;;;;;51.47;23.90;;;5.20;99.90;;;;;;4974176;28;20256;-74
2022/01/17 07:47:38;;;;;;;41.33;18.35;;;5.10;99.90;;;;;;4973249;28;20440;-75
2022/01/17 07:50:05;;;;;;;45.55;21.83;;;5.10;99.90;;;;;;4986042;28;20184;-75
2022/01/17 07:52:31;;;;;;;46.05;22.20;;;5.20;99.90;;;;;;4994024;28;20200;-74
2022/01/17 07:54:56;;;;;;;43.17;21.97;;;5.20;99.90;;;;;;4979511;28;20186;-74
2022/01/17 07:57:22;;;;;;;45.37;21.60;;;5.20;99.90;;;;;;4997289;28;20415;-74
2022/01/17 07:59:47;;;;;;;40.53;18.40;;;5.20;99.90;;;;;;4997133;28;20215;-74
2022/01/17 08:02:13;;;;;;;39.87;20.47;;;5.20;99.90;;;;;;4996906;28;20207;-74
2022/01/17 08:04:39;;;;;;;47.07;22.07;;;5.20;99.90;;;;;;4995990;28;20287;-75
2022/01/17 08:07:07;;;;;;;54.90;22.50;;;5.20;99.90;;;;;;4995987;28;20764;-74
2022/01/17 08:09:33;;;;;;;47.83;22.15;;;5.30;99.90;;;;;;4996942;28;20255;-75
2022/01/17 08:12:00;;;;;;;44.00;20.20;;;5.30;99.90;;;;;;4996439;28;20199;-74
2022/01/17 08:14:26;;;;;;;45.38;19.77;;;5.40;99.90;;;;;;4997050;28;20263;-74
2022/01/17 08:16:52;;;;;;;40.90;19.73;;;5.40;99.90;;;;;;4997147;28;20234;-74
2022/01/17 08:19:18;;;;;;;44.33;20.27;;;5.40;99.90;;;;;;4995579;28;20188;-74
2022/01/17 08:21:46;;;;;;;39.80;18.67;;;5.40;99.90;;;;;;4980646;28;20208;-74
2022/01/17 08:24:11;;;;;;;46.97;22.38;;;5.40;99.90;;;;;;4977029;28;20593;-74
2022/01/17 08:26:42;;;;;;;41.97;19.10;;;5.40;99.90;;;;;;4975550;28;20177;-74
2022/01/17 08:29:11;;;;;;;42.88;20.17;;;5.40;99.90;;;;;;4977494;28;20653;-74
2022/01/17 08:31:38;;;;;;;41.53;20.23;;;5.40;99.90;;;;;;4976867;28;20201;-74
2022/01/17 08:34:03;;;;;;;37.72;18.50;;;5.50;99.90;;;;;;4977166;28;20215;-74
2022/01/17 08:36:29;;;;;;;32.60;16.17;;;5.50;99.90;;;;;;4977083;28;20595;-74
2022/01/17 08:38:55;;;;;;;35.17;15.57;;;5.50;99.90;;;;;;4977030;28;20181;-74
2022/01/17 08:41:20;;;;;;;40.73;18.77;;;5.50;99.90;;;;;;4976640;28;20208;-74
2022/01/17 08:43:49;;;;;;;39.27;18.40;;;5.50;99.90;;;;;;4976778;28;20213;-74
2022/01/17 08:46:15;;;;;;;21.90;11.60;;;5.50;99.90;;;;;;4977188;28;20181;-74
2022/01/17 08:48:42;;;;;;;39.72;20.85;;;5.60;99.90;;;;;;4977019;28;20172;-74
2022/01/17 08:51:07;;;;;;;27.30;15.43;;;5.50;99.90;;;;;;4987014;28;20186;-74
2022/01/17 08:53:34;;;;;;;47.43;21.17;;;5.60;99.90;;;;;;4995285;28;20184;-74
2022/01/17 08:55:59;;;;;;;37.65;19.83;;;5.50;99.90;;;;;;4995791;28;20206;-74
2022/01/17 08:58:25;;;;;;;32.43;19.00;;;5.50;99.90;;;;;;4996153;28;20184;-73
2022/01/17 09:00:51;;;;;;;45.30;22.80;;;5.50;99.90;;;;;;4995764;28;20182;-74
2022/01/17 09:03:19;;;;;;;42.53;20.43;;;5.50;99.90;;;;;;4995785;28;20864;-74
2022/01/17 09:05:45;;;;;;;35.60;18.25;;;5.50;99.90;;;;;;4996209;28;20215;-74
2022/01/17 09:08:11;;;;;;;34.33;17.77;;;5.50;99.90;;;;;;4995815;28;20648;-74
2022/01/17 09:10:38;;;;;;;39.83;20.85;;;5.50;99.90;;;;;;4996082;28;20422;-74
2022/01/17 09:13:04;;;;;;;41.83;18.50;;;5.60;99.90;;;;;;4995581;28;20540;-74
2022/01/17 09:15:30;;;;;;;40.90;20.45;;;5.70;99.90;;;;;;4995826;28;20192;-74
2022/01/17 09:17:56;;;;;;;37.03;18.25;;;5.70;99.90;;;;;;4978404;28;20210;-74
2022/01/17 09:20:23;;;;;;;40.17;20.63;;;5.70;99.90;;;;;;4979621;28;20180;-74
2022/01/17 09:22:48;;;;;;;39.00;20.13;;;5.70;99.90;;;;;;4993538;28;20696;-74
2022/01/17 09:25:14;;;;;;;44.80;22.90;;;5.70;99.90;;;;;;4995290;28;20182;-74
2022/01/17 09:27:41;;;;;;;39.77;22.70;;;5.80;99.90;;;;;;4995750;28;20188;-74
2022/01/17 09:30:11;;;;;;;37.30;21.83;;;5.80;99.90;;;;;;4995700;28;20199;-74
2022/01/17 09:32:37;;;;;;;39.45;20.77;;;5.80;99.90;;;;;;4995102;28;20559;-75
2022/01/17 09:35:04;;;;;;;43.72;21.83;;;5.90;99.90;;;;;;4995535;28;20262;-74
2022/01/17 09:37:30;;;;;;;49.55;21.85;;;5.80;99.90;;;;;;4995607;28;20266;-74
2022/01/17 09:39:56;;;;;;;39.13;21.10;;;5.80;99.90;;;;;;4995828;28;20271;-74
2022/01/17 09:42:21;;;;;;;43.40;21.20;;;5.90;99.90;;;;;;4995207;28;20443;-74
2022/01/17 09:44:47;;;;;;;38.77;22.00;;;5.90;99.90;;;;;;4995482;28;20230;-74
2022/01/17 09:47:14;;;;;;;46.87;24.13;;;5.90;99.90;;;;;;4995448;28;20542;-74
2022/01/17 09:49:49;;;;;;;42.08;21.15;;;6.00;99.90;;;;;;4995175;28;20565;-74
2022/01/17 09:55:15;;;;;;;43.58;24.40;;;6.30;99.90;;;;;;4975388;28;20275;-74
2022/01/17 09:57:45;;;;;;;42.88;23.55;;;6.40;99.90;;;;;;4975712;28;20257;-74
2022/01/17 10:00:12;;;;;;;44.65;24.33;;;6.40;99.90;;;;;;4975799;28;20172;-74
2022/01/17 10:02:39;;;;;;;41.03;22.75;;;6.50;99.90;;;;;;4976502;28;20205;-73
2022/01/17 10:05:08;;;;;;;46.88;25.27;;;6.50;99.90;;;;;;4975952;28;20188;-74
2022/01/17 10:07:53;;;;;;;46.63;20.98;;;6.30;99.90;;;;;;4975538;28;20260;-74
2022/01/17 10:10:42;;;;;;;46.58;24.85;;;6.30;99.90;;;;;;4975477;28;20169;-74
2022/01/17 10:13:11;;;;;;;49.60;23.05;;;6.20;99.90;;;;;;4975362;28;20205;-74
2022/01/17 10:15:48;;;;;;;40.85;23.67;;;6.20;99.90;;;;;;4974747;28;20180;-75
2022/01/17 10:18:37;;;;;;;41.72;21.10;;;6.30;99.90;;;;;;4975267;28;20184;-75
2022/01/17 10:21:12;;;;;;;41.90;23.80;;;6.20;99.90;;;;;;4973531;28;20704;-74
2022/01/17 10:24:06;;;;;;;40.15;23.27;;;6.30;99.90;;;;;;4986671;28;20219;-74
2022/01/17 10:29:52;;;;;;;34.88;19.92;;;6.30;99.90;;;;;;4974976;28;20236;-74
2022/01/17 10:35:10;;;;;;;44.70;26.27;;;6.40;99.90;;;;;;4975118;28;20239;-74
2022/01/17 10:37:36;;;;;;;38.10;23.77;;;6.40;99.90;;;;;;4975200;28;20579;-74
2022/01/17 10:40:07;;;;;;;38.90;22.90;;;6.40;99.90;;;;;;4974772;28;20255;-74
2022/01/17 10:42:45;;;;;;;38.20;22.95;;;6.50;99.90;;;;;;4974602;28;20278;-74
2022/01/17 10:45:33;;;;;;;29.27;17.13;;;6.50;99.90;;;;;;4974831;28;20167;-74
2022/01/17 10:48:01;;;;;;;40.88;23.27;;;6.50;99.90;;;;;;4974675;28;20165;-74
2022/01/17 10:50:34;;;;;;;33.03;19.05;;;6.60;99.90;;;;;;4973810;28;20264;-75
2022/01/17 10:53:05;;;;;;;42.65;22.00;;;6.80;99.90;;;;;;4974250;28;20200;-74
2022/01/17 10:55:33;;;;;;;35.83;20.38;;;6.90;99.90;;;;;;4974539;28;20176;-74
2022/01/17 10:58:02;;;;;;;34.60;19.02;;;7.00;99.90;;;;;;4974689;28;20248;-75
2022/01/17 11:00:31;;;;;;;27.85;19.55;;;7.00;99.90;;;;;;4974486;28;20239;-74
2022/01/17 11:03:03;;;;;;;29.90;17.45;;;7.00;99.90;;;;;;4992241;28;20298;-75
2022/01/17 11:05:31;;;;;;;28.30;17.48;;;7.00;99.90;;;;;;4992489;28;20263;-74
2022/01/17 11:08:00;;;;;;;27.85;14.40;;;6.90;99.90;;;;;;4993927;28;20520;-74
2022/01/17 11:10:32;;;;;;;30.48;18.00;;;6.90;99.90;;;;;;4993944;28;20239;-74
2022/01/17 11:13:01;;;;;;;26.17;15.98;;;7.00;99.90;;;;;;4993476;28;20189;-74
2022/01/17 11:15:28;;;;;;;33.35;20.17;;;7.00;99.90;;;;;;4993726;28;20184;-75
2022/01/17 11:17:57;;;;;;;26.48;18.35;;;6.80;99.90;;;;;;4993690;28;20572;-75
2022/01/17 11:20:27;;;;;;;24.85;16.27;;;6.80;99.90;;;;;;4993729;28;20289;-74
2022/01/17 11:22:58;;;;;;;30.77;20.73;;;6.80;99.90;;;;;;4993220;28;20203;-75
2022/01/17 11:25:36;;;;;;;33.67;20.40;;;6.70;99.90;;;;;;4993557;28;20585;-74
2022/01/17 11:28:04;;;;;;;36.95;21.95;;;6.70;99.90;;;;;;4986662;28;20195;-74
2022/01/17 11:30:31;;;;;;;29.10;18.45;;;6.70;99.90;;;;;;4992615;28;20184;-75
2022/01/17 11:32:59;;;;;;;38.20;19.98;;;6.70;99.90;;;;;;4978369;28;20212;-74
2022/01/17 11:35:25;;;;;;;39.90;22.48;;;6.60;99.90;;;;;;4978101;28;20257;-75
2022/01/17 11:37:58;;;;;;;33.17;19.75;;;6.60;99.90;;;;;;4978053;28;20189;-75
2022/01/17 11:40:36;;;;;;;33.42;18.73;;;6.60;99.90;;;;;;4978385;28;20581;-75
2022/01/17 11:43:33;;;;;;;31.85;19.17;;;6.60;99.90;;;;;;4977548;28;20204;-76
2022/01/17 11:46:00;;;;;;;34.78;20.70;;;6.60;99.90;;;;;;4976972;28;20186;-76
2022/01/17 11:48:32;;;;;;;38.00;21.10;;;6.70;99.90;;;;;;4977902;28;20206;-75
2022/01/17 11:51:18;;;;;;;40.97;18.42;;;6.70;99.90;;;;;;4977580;28;20247;-75
2022/01/17 11:53:49;;;;;;;40.30;22.30;;;6.70;99.90;;;;;;4977748;28;20613;-75
2022/01/17 11:56:37;;;;;;;26.92;13.75;;;6.70;99.90;;;;;;4978097;28;20197;-75
2022/01/17 11:59:36;;;;;;;36.35;20.48;;;6.70;99.90;;;;;;4976548;28;20582;-75
2022/01/17 12:02:18;;;;;;;32.85;20.88;;;6.70;99.90;;;;;;4976479;28;20193;-75
2022/01/17 12:05:06;;;;;;;36.28;19.30;;;6.70;99.90;;;;;;4977590;28;20202;-75
2022/01/17 12:07:38;;;;;;;38.47;21.08;;;6.80;99.90;;;;;;4957497;28;20184;-75
2022/01/17 12:10:09;;;;;;;31.52;19.13;;;6.70;99.90;;;;;;4977436;28;20173;-73
2022/01/17 12:12:35;;;;;;;37.13;17.85;;;6.70;99.90;;;;;;4977084;28;20572;-73
2022/01/17 12:15:05;;;;;;;31.80;19.10;;;6.60;99.90;;;;;;4977522;28;20169;-74
2022/01/17 12:17:31;;;;;;;37.55;20.50;;;6.60;99.90;;;;;;4977346;28;20443;-73
2022/01/17 12:20:17;;;;;;;34.90;19.55;;;6.50;99.90;;;;;;4977412;28;20256;-73
2022/01/17 12:22:45;;;;;;;33.70;18.92;;;6.50;99.90;;;;;;4975789;28;20761;-75
2022/01/17 12:25:30;;;;;;;32.92;20.92;;;6.50;99.90;;;;;;4977295;28;20184;-75
2022/01/17 12:28:04;;;;;;;33.67;21.70;;;6.50;99.90;;;;;;4977186;28;20164;-75
2022/01/17 12:30:51;;;;;;;31.30;21.25;;;6.50;99.90;;;;;;4977236;28;20239;-75
2022/01/17 12:33:30;;;;;;;47.05;23.92;;;6.50;99.90;;;;;;4976274;28;20218;-75
2022/01/17 12:35:59;;;;;;;32.50;18.52;;;6.50;99.90;;;;;;4989545;28;20191;-75
2022/01/17 12:38:43;;;;;;;41.15;17.92;;;6.40;99.90;;;;;;4979447;28;20184;-75
2022/01/17 12:41:35;;;;;;;35.15;20.67;;;6.40;99.90;;;;;;4975779;28;20181;-74
2022/01/17 12:44:22;;;;;;;45.08;24.65;;;6.40;99.90;;;;;;4977025;28;20197;-74
2022/01/17 12:46:51;;;;;;;29.58;18.13;;;6.50;99.90;;;;;;4976858;28;20169;-74
2022/01/17 12:49:18;;;;;;;29.52;17.13;;;6.50;99.90;;;;;;4976787;28;20173;-75
2022/01/17 12:51:46;;;;;;;42.70;23.33;;;6.50;99.90;;;;;;4976311;28;20201;-75
2022/01/17 12:54:21;;;;;;;39.20;21.08;;;6.50;99.90;;;;;;4975631;28;20193;-75
2022/01/17 12:56:50;;;;;;;41.85;24.73;;;6.50;99.90;;;;;;4976828;28;20540;-75
2022/01/17 12:59:17;;;;;;;51.15;24.73;;;6.40;99.90;;;;;;4976762;28;20235;-75
2022/01/17 13:01:44;;;;;;;42.13;24.15;;;6.40;99.90;;;;;;4976180;28;20247;-75
2022/01/17 13:04:12;;;;;;;36.25;22.88;;;6.50;99.90;;;;;;4982069;28;20216;-74
2022/01/17 13:06:41;;;;;;;44.92;23.50;;;6.40;99.90;;;;;;4996014;28;20254;-75
2022/01/17 13:09:20;;;;;;;39.97;23.45;;;6.40;99.90;;;;;;4996074;28;20180;-75
2022/01/17 13:11:47;;;;;;;38.63;22.98;;;6.50;99.90;;;;;;4995522;28;20684;-75
2022/01/17 13:14:15;;;;;;;40.10;24.38;;;6.40;99.90;;;;;;4995722;28;20184;-75
2022/01/17 13:16:41;;;;;;;41.50;23.98;;;6.50;99.90;;;;;;4995692;28;20192;-74